sensor_id;sensor_type;location;lat;lon;timestamp;P1;durP1;ratioP1;P2;durP2;ratioP2
55609;SDS011;41486;52.502;13.486;2023-02-15T00:00:08;19.42;;;10.45;;
55609;SDS011;41486;52.502;13.486;2023-02-15T00:02:37;21.95;;;11.10;;
55609;SDS011;41486;52.502;13.486;2023-02-15T00:05:06;20.05;;;9.45;;
55609;SDS011;41486;52.502;13.486;2023-02-15T00:07:35;22.83;;;10.85;;
55609;SDS011;41486;52.502;13.486;2023-02-15T00:10:03;20.80;;;10.60;;
55609;SDS011;41486;52.502;13.486;2023-02-15T00:12:32;19.48;;;10.93;;
55609;SDS011;41486;52.502;13.486;2023-02-15T00:15:01;24.25;;;11.70;;
55609;SDS011;41486;52.502;13.486;2023-02-15T00:17:30;22.85;;;11.02;;
55609;SDS011;41486;52.502;13.486;2023-02-15T00:19:58;23.83;;;11.27;;
55609;SDS011;41486;52.502;13.486;2023-02-15T00:22:28;18.95;;;10.50;;
55609;SDS011;41486;52.502;13.486;2023-02-15T00:24:56;20.40;;;10.55;;
55609;SDS011;41486;52.502;13.486;2023-02-15T00:27:24;22.42;;;11.32;;
55609;SDS011;41486;52.502;13.486;2023-02-15T00:29:52;23.50;;;10.48;;
55609;SDS011;41486;52.502;13.486;2023-02-15T00:32:21;24.65;;;11.20;;
55609;SDS011;41486;52.502;13.486;2023-02-15T00:34:49;21.73;;;10.02;;
55609;SDS011;41486;52.502;13.486;2023-02-15T00:37:17;20.65;;;10.40;;
55609;SDS011;41486;52.502;13.486;2023-02-15T00:39:46;26.63;;;11.00;;
55609;SDS011;41486;52.502;13.486;2023-02-15T00:42:16;23.80;;;10.73;;
55609;SDS011;41486;52.502;13.486;2023-02-15T00:44:44;19.20;;;10.05;;
55609;SDS011;41486;52.502;13.486;2023-02-15T00:47:12;23.73;;;11.32;;
55609;SDS011;41486;52.502;13.486;2023-02-15T00:49:41;26.58;;;12.18;;
55609;SDS011;41486;52.502;13.486;2023-02-15T00:52:09;23.88;;;12.10;;
55609;SDS011;41486;52.502;13.486;2023-02-15T00:54:37;19.35;;;10.02;;
55609;SDS011;41486;52.502;13.486;2023-02-15T00:57:06;19.40;;;10.18;;
55609;SDS011;41486;52.502;13.486;2023-02-15T00:59:34;22.70;;;11.52;;
55609;SDS011;41486;52.502;13.486;2023-02-15T01:02:02;26.00;;;11.50;;
55609;SDS011;41486;52.502;13.486;2023-02-15T01:04:30;24.42;;;11.20;;
55609;SDS011;41486;52.502;13.486;2023-02-15T01:06:59;21.05;;;11.13;;
55609;SDS011;41486;52.502;13.486;2023-02-15T01:09:28;23.30;;;11.70;;
55609;SDS011;41486;52.502;13.486;2023-02-15T01:11:56;21.20;;;10.35;;
55609;SDS011;41486;52.502;13.486;2023-02-15T01:14:25;23.38;;;10.95;;
55609;SDS011;41486;52.502;13.486;2023-02-15T01:16:53;21.23;;;10.30;;
55609;SDS011;41486;52.502;13.486;2023-02-15T01:19:21;21.08;;;10.32;;
55609;SDS011;41486;52.502;13.486;2023-02-15T01:21:49;23.55;;;11.20;;
55609;SDS011;41486;52.502;13.486;2023-02-15T01:24:18;21.73;;;11.07;;
55609;SDS011;41486;52.502;13.486;2023-02-15T01:26:47;22.20;;;10.77;;
55609;SDS011;41486;52.502;13.486;2023-02-15T01:29:15;23.45;;;11.55;;
55609;SDS011;41486;52.502;13.486;2023-02-15T01:31:43;20.00;;;10.13;;
55609;SDS011;41486;52.502;13.486;2023-02-15T01:34:13;21.17;;;10.75;;
55609;SDS011;41486;52.502;13.486;2023-02-15T01:36:41;22.20;;;11.23;;
55609;SDS011;41486;52.502;13.486;2023-02-15T01:39:09;23.80;;;11.55;;
55609;SDS011;41486;52.502;13.486;2023-02-15T01:41:40;22.85;;;11.27;;
55609;SDS011;41486;52.502;13.486;2023-02-15T01:47:09;22.35;;;10.25;;
55609;SDS011;41486;52.502;13.486;2023-02-15T01:49:42;26.80;;;12.07;;
55609;SDS011;41486;52.502;13.486;2023-02-15T01:52:13;24.23;;;12.20;;
55609;SDS011;41486;52.502;13.486;2023-02-15T01:54:45;25.63;;;11.63;;
55609;SDS011;41486;52.502;13.486;2023-02-15T01:57:16;22.35;;;10.35;;
55609;SDS011;41486;52.502;13.486;2023-02-15T01:59:51;25.13;;;11.35;;
55609;SDS011;41486;52.502;13.486;2023-02-15T02:02:24;21.33;;;11.70;;
55609;SDS011;41486;52.502;13.486;2023-02-15T02:04:54;24.42;;;10.77;;
55609;SDS011;41486;52.502;13.486;2023-02-15T02:07:30;22.60;;;10.70;;
55609;SDS011;41486;52.502;13.486;2023-02-15T02:10:02;26.67;;;12.10;;
55609;SDS011;41486;52.502;13.486;2023-02-15T02:12:33;25.00;;;11.95;;
55609;SDS011;41486;52.502;13.486;2023-02-15T02:15:08;22.17;;;12.50;;
55609;SDS011;41486;52.502;13.486;2023-02-15T02:17:38;18.23;;;9.77;;
55609;SDS011;41486;52.502;13.486;2023-02-15T02:20:25;22.65;;;11.93;;
55609;SDS011;41486;52.502;13.486;2023-02-15T02:23:18;23.13;;;11.18;;
55609;SDS011;41486;52.502;13.486;2023-02-15T02:26:18;28.83;;;12.95;;
55609;SDS011;41486;52.502;13.486;2023-02-15T02:29:36;28.92;;;13.80;;
55609;SDS011;41486;52.502;13.486;2023-02-15T02:32:25;29.27;;;12.98;;
55609;SDS011;41486;52.502;13.486;2023-02-15T02:35:18;26.60;;;12.82;;
55609;SDS011;41486;52.502;13.486;2023-02-15T02:37:56;28.25;;;12.95;;
55609;SDS011;41486;52.502;13.486;2023-02-15T02:40:34;30.25;;;14.05;;
55609;SDS011;41486;52.502;13.486;2023-02-15T02:43:10;30.55;;;12.65;;
55609;SDS011;41486;52.502;13.486;2023-02-15T02:45:47;31.15;;;13.27;;
55609;SDS011;41486;52.502;13.486;2023-02-15T02:48:21;34.15;;;15.13;;
55609;SDS011;41486;52.502;13.486;2023-02-15T02:50:53;32.65;;;14.38;;
55609;SDS011;41486;52.502;13.486;2023-02-15T02:53:21;39.38;;;16.88;;
55609;SDS011;41486;52.502;13.486;2023-02-15T02:55:50;36.72;;;14.95;;
55609;SDS011;41486;52.502;13.486;2023-02-15T02:58:24;34.10;;;14.63;;
55609;SDS011;41486;52.502;13.486;2023-02-15T03:00:59;38.05;;;16.20;;
55609;SDS011;41486;52.502;13.486;2023-02-15T03:03:34;32.50;;;14.13;;
55609;SDS011;41486;52.502;13.486;2023-02-15T03:06:07;36.55;;;15.02;;
55609;SDS011;41486;52.502;13.486;2023-02-15T03:08:40;35.38;;;14.35;;
55609;SDS011;41486;52.502;13.486;2023-02-15T03:11:14;34.80;;;14.85;;
55609;SDS011;41486;52.502;13.486;2023-02-15T03:13:43;29.50;;;14.07;;
55609;SDS011;41486;52.502;13.486;2023-02-15T03:16:13;31.13;;;15.55;;
55609;SDS011;41486;52.502;13.486;2023-02-15T03:18:55;30.92;;;15.73;;
55609;SDS011;41486;52.502;13.486;2023-02-15T03:21:27;33.92;;;14.52;;
55609;SDS011;41486;52.502;13.486;2023-02-15T03:24:00;34.85;;;15.10;;
55609;SDS011;41486;52.502;13.486;2023-02-15T03:26:35;31.52;;;15.93;;
55609;SDS011;41486;52.502;13.486;2023-02-15T03:29:06;36.30;;;14.65;;
55609;SDS011;41486;52.502;13.486;2023-02-15T03:31:37;35.67;;;14.43;;
55609;SDS011;41486;52.502;13.486;2023-02-15T03:34:09;37.35;;;14.20;;
55609;SDS011;41486;52.502;13.486;2023-02-15T03:36:43;34.47;;;14.57;;
55609;SDS011;41486;52.502;13.486;2023-02-15T03:39:18;29.90;;;14.35;;
55609;SDS011;41486;52.502;13.486;2023-02-15T03:41:50;37.50;;;15.88;;
55609;SDS011;41486;52.502;13.486;2023-02-15T03:44:25;38.42;;;16.90;;
55609;SDS011;41486;52.502;13.486;2023-02-15T03:46:58;31.58;;;14.77;;
55609;SDS011;41486;52.502;13.486;2023-02-15T03:49:35;37.13;;;16.38;;
55609;SDS011;41486;52.502;13.486;2023-02-15T03:52:09;31.25;;;13.73;;
55609;SDS011;41486;52.502;13.486;2023-02-15T03:54:41;30.95;;;15.45;;
55609;SDS011;41486;52.502;13.486;2023-02-15T03:57:12;32.42;;;15.18;;
55609;SDS011;41486;52.502;13.486;2023-02-15T04:00:02;32.95;;;13.68;;
55609;SDS011;41486;52.502;13.486;2023-02-15T04:05:46;38.50;;;16.30;;
55609;SDS011;41486;52.502;13.486;2023-02-15T04:08:16;31.55;;;14.30;;
55609;SDS011;41486;52.502;13.486;2023-02-15T04:10:44;35.88;;;15.80;;
55609;SDS011;41486;52.502;13.486;2023-02-15T04:13:23;38.13;;;14.88;;
55609;SDS011;41486;52.502;13.486;2023-02-15T04:18:33;33.72;;;12.80;;
55609;SDS011;41486;52.502;13.486;2023-02-15T04:21:20;44.05;;;21.13;;
55609;SDS011;41486;52.502;13.486;2023-02-15T04:24:12;36.65;;;14.88;;
55609;SDS011;41486;52.502;13.486;2023-02-15T04:26:58;36.03;;;15.25;;
55609;SDS011;41486;52.502;13.486;2023-02-15T04:29:27;31.20;;;15.30;;
55609;SDS011;41486;52.502;13.486;2023-02-15T04:31:56;30.48;;;13.07;;
55609;SDS011;41486;52.502;13.486;2023-02-15T04:34:25;33.30;;;15.50;;
55609;SDS011;41486;52.502;13.486;2023-02-15T04:36:54;35.53;;;15.18;;
55609;SDS011;41486;52.502;13.486;2023-02-15T04:39:23;33.17;;;14.30;;
55609;SDS011;41486;52.502;13.486;2023-02-15T04:41:51;29.73;;;12.57;;
55609;SDS011;41486;52.502;13.486;2023-02-15T04:44:19;27.70;;;13.40;;
55609;SDS011;41486;52.502;13.486;2023-02-15T04:46:47;33.50;;;16.23;;
55609;SDS011;41486;52.502;13.486;2023-02-15T04:49:15;34.60;;;14.32;;
55609;SDS011;41486;52.502;13.486;2023-02-15T04:51:43;35.85;;;15.88;;
55609;SDS011;41486;52.502;13.486;2023-02-15T04:54:11;27.40;;;13.80;;
55609;SDS011;41486;52.502;13.486;2023-02-15T04:56:40;29.13;;;13.95;;
55609;SDS011;41486;52.502;13.486;2023-02-15T04:59:09;35.45;;;14.75;;
55609;SDS011;41486;52.502;13.486;2023-02-15T05:01:37;32.20;;;13.25;;
55609;SDS011;41486;52.502;13.486;2023-02-15T05:04:05;33.22;;;14.02;;
55609;SDS011;41486;52.502;13.486;2023-02-15T05:06:33;29.90;;;14.57;;
55609;SDS011;41486;52.502;13.486;2023-02-15T05:09:01;33.33;;;16.13;;
55609;SDS011;41486;52.502;13.486;2023-02-15T05:11:30;31.73;;;13.70;;
55609;SDS011;41486;52.502;13.486;2023-02-15T05:13:59;32.40;;;14.80;;
55609;SDS011;41486;52.502;13.486;2023-02-15T05:16:27;35.40;;;14.38;;
55609;SDS011;41486;52.502;13.486;2023-02-15T05:18:55;32.65;;;15.15;;
55609;SDS011;41486;52.502;13.486;2023-02-15T05:21:23;27.73;;;12.93;;
55609;SDS011;41486;52.502;13.486;2023-02-15T05:23:51;30.92;;;14.00;;
55609;SDS011;41486;52.502;13.486;2023-02-15T05:26:20;38.67;;;14.25;;
55609;SDS011;41486;52.502;13.486;2023-02-15T05:29:08;35.05;;;14.30;;
55609;SDS011;41486;52.502;13.486;2023-02-15T05:31:37;34.10;;;15.27;;
55609;SDS011;41486;52.502;13.486;2023-02-15T05:34:05;39.30;;;15.70;;
55609;SDS011;41486;52.502;13.486;2023-02-15T05:36:33;30.25;;;13.55;;
55609;SDS011;41486;52.502;13.486;2023-02-15T05:39:01;36.15;;;14.45;;
55609;SDS011;41486;52.502;13.486;2023-02-15T05:41:30;35.65;;;13.95;;
55609;SDS011;41486;52.502;13.486;2023-02-15T05:43:58;32.17;;;14.32;;
55609;SDS011;41486;52.502;13.486;2023-02-15T05:46:27;31.27;;;13.93;;
55609;SDS011;41486;52.502;13.486;2023-02-15T05:48:55;35.53;;;13.70;;
55609;SDS011;41486;52.502;13.486;2023-02-15T05:51:23;32.90;;;14.70;;
55609;SDS011;41486;52.502;13.486;2023-02-15T05:53:51;32.28;;;13.90;;
55609;SDS011;41486;52.502;13.486;2023-02-15T05:56:19;40.13;;;15.45;;
55609;SDS011;41486;52.502;13.486;2023-02-15T05:58:47;39.35;;;15.77;;
55609;SDS011;41486;52.502;13.486;2023-02-15T06:01:15;30.35;;;15.02;;
55609;SDS011;41486;52.502;13.486;2023-02-15T06:03:46;36.63;;;14.68;;
55609;SDS011;41486;52.502;13.486;2023-02-15T06:06:14;38.88;;;14.82;;
55609;SDS011;41486;52.502;13.486;2023-02-15T06:08:42;30.05;;;13.65;;
55609;SDS011;41486;52.502;13.486;2023-02-15T06:11:10;32.33;;;15.00;;
55609;SDS011;41486;52.502;13.486;2023-02-15T06:13:38;37.33;;;16.38;;
55609;SDS011;41486;52.502;13.486;2023-02-15T06:16:06;36.75;;;15.93;;
55609;SDS011;41486;52.502;13.486;2023-02-15T06:18:34;37.30;;;15.50;;
55609;SDS011;41486;52.502;13.486;2023-02-15T06:21:04;33.80;;;15.30;;
55609;SDS011;41486;52.502;13.486;2023-02-15T06:23:32;41.72;;;16.75;;
55609;SDS011;41486;52.502;13.486;2023-02-15T06:26:00;41.97;;;15.90;;
55609;SDS011;41486;52.502;13.486;2023-02-15T06:28:28;48.38;;;17.67;;
55609;SDS011;41486;52.502;13.486;2023-02-15T06:30:56;43.35;;;19.55;;
55609;SDS011;41486;52.502;13.486;2023-02-15T06:33:24;59.25;;;23.13;;
55609;SDS011;41486;52.502;13.486;2023-02-15T06:35:52;44.70;;;21.88;;
55609;SDS011;41486;52.502;13.486;2023-02-15T06:38:21;71.05;;;19.33;;
55609;SDS011;41486;52.502;13.486;2023-02-15T06:40:50;49.15;;;18.67;;
55609;SDS011;41486;52.502;13.486;2023-02-15T06:43:17;48.55;;;19.48;;
55609;SDS011;41486;52.502;13.486;2023-02-15T06:45:45;87.35;;;19.95;;
55609;SDS011;41486;52.502;13.486;2023-02-15T06:48:13;41.33;;;16.52;;
55609;SDS011;41486;52.502;13.486;2023-02-15T06:50:41;39.53;;;15.77;;
55609;SDS011;41486;52.502;13.486;2023-02-15T06:53:09;39.13;;;17.85;;
55609;SDS011;41486;52.502;13.486;2023-02-15T06:55:39;40.45;;;16.75;;
55609;SDS011;41486;52.502;13.486;2023-02-15T06:58:07;56.30;;;17.67;;
55609;SDS011;41486;52.502;13.486;2023-02-15T07:00:35;50.72;;;16.90;;
55609;SDS011;41486;52.502;13.486;2023-02-15T07:03:05;40.58;;;17.05;;
55609;SDS011;41486;52.502;13.486;2023-02-15T07:05:34;59.58;;;20.52;;
55609;SDS011;41486;52.502;13.486;2023-02-15T07:08:02;66.78;;;18.10;;
55609;SDS011;41486;52.502;13.486;2023-02-15T07:10:30;53.03;;;16.48;;
55609;SDS011;41486;52.502;13.486;2023-02-15T07:12:59;57.22;;;18.00;;
55609;SDS011;41486;52.502;13.486;2023-02-15T07:15:26;49.95;;;17.92;;
55609;SDS011;41486;52.502;13.486;2023-02-15T07:17:54;48.95;;;16.75;;
55609;SDS011;41486;52.502;13.486;2023-02-15T07:20:24;71.10;;;18.55;;
55609;SDS011;41486;52.502;13.486;2023-02-15T07:22:52;109.88;;;20.25;;
55609;SDS011;41486;52.502;13.486;2023-02-15T07:25:20;46.25;;;19.48;;
55609;SDS011;41486;52.502;13.486;2023-02-15T07:27:48;55.28;;;18.23;;
55609;SDS011;41486;52.502;13.486;2023-02-15T07:30:17;54.13;;;17.80;;
55609;SDS011;41486;52.502;13.486;2023-02-15T07:32:45;54.30;;;18.42;;
55609;SDS011;41486;52.502;13.486;2023-02-15T07:35:31;59.30;;;18.77;;
55609;SDS011;41486;52.502;13.486;2023-02-15T07:37:59;70.00;;;18.45;;
55609;SDS011;41486;52.502;13.486;2023-02-15T07:40:27;77.30;;;21.95;;
55609;SDS011;41486;52.502;13.486;2023-02-15T07:42:59;55.78;;;18.23;;
55609;SDS011;41486;52.502;13.486;2023-02-15T07:45:30;61.63;;;18.02;;
55609;SDS011;41486;52.502;13.486;2023-02-15T07:47:59;54.03;;;18.08;;
55609;SDS011;41486;52.502;13.486;2023-02-15T07:50:27;51.40;;;17.48;;
55609;SDS011;41486;52.502;13.486;2023-02-15T07:52:56;61.10;;;19.98;;
55609;SDS011;41486;52.502;13.486;2023-02-15T07:55:24;51.40;;;17.88;;
55609;SDS011;41486;52.502;13.486;2023-02-15T07:57:52;47.33;;;17.77;;
55609;SDS011;41486;52.502;13.486;2023-02-15T08:00:22;45.45;;;16.25;;
55609;SDS011;41486;52.502;13.486;2023-02-15T08:02:53;44.45;;;16.45;;
55609;SDS011;41486;52.502;13.486;2023-02-15T08:05:36;55.70;;;17.20;;
55609;SDS011;41486;52.502;13.486;2023-02-15T08:08:04;49.75;;;18.85;;
55609;SDS011;41486;52.502;13.486;2023-02-15T08:10:33;45.40;;;18.45;;
55609;SDS011;41486;52.502;13.486;2023-02-15T08:13:18;56.15;;;17.17;;
55609;SDS011;41486;52.502;13.486;2023-02-15T08:15:49;35.38;;;14.18;;
55609;SDS011;41486;52.502;13.486;2023-02-15T08:18:19;53.97;;;19.33;;
55609;SDS011;41486;52.502;13.486;2023-02-15T08:20:48;45.83;;;17.83;;
55609;SDS011;41486;52.502;13.486;2023-02-15T08:23:17;63.10;;;28.63;;
55609;SDS011;41486;52.502;13.486;2023-02-15T08:25:47;41.92;;;18.30;;
55609;SDS011;41486;52.502;13.486;2023-02-15T08:28:15;44.03;;;16.73;;
55609;SDS011;41486;52.502;13.486;2023-02-15T08:30:42;44.92;;;16.73;;
55609;SDS011;41486;52.502;13.486;2023-02-15T08:33:10;50.65;;;20.33;;
55609;SDS011;41486;52.502;13.486;2023-02-15T08:35:40;101.13;;;45.17;;
55609;SDS011;41486;52.502;13.486;2023-02-15T08:38:08;136.88;;;65.70;;
55609;SDS011;41486;52.502;13.486;2023-02-15T08:40:36;54.17;;;22.75;;
55609;SDS011;41486;52.502;13.486;2023-02-15T08:43:04;63.67;;;29.50;;
55609;SDS011;41486;52.502;13.486;2023-02-15T08:45:33;80.32;;;34.17;;
55609;SDS011;41486;52.502;13.486;2023-02-15T08:48:01;38.92;;;14.95;;
55609;SDS011;41486;52.502;13.486;2023-02-15T08:50:29;37.35;;;15.73;;
55609;SDS011;41486;52.502;13.486;2023-02-15T08:52:58;35.35;;;14.65;;
55609;SDS011;41486;52.502;13.486;2023-02-15T08:55:27;39.47;;;15.48;;
55609;SDS011;41486;52.502;13.486;2023-02-15T08:57:54;36.80;;;15.98;;
55609;SDS011;41486;52.502;13.486;2023-02-15T09:00:25;35.25;;;15.30;;
55609;SDS011;41486;52.502;13.486;2023-02-15T09:02:55;41.25;;;17.38;;
55609;SDS011;41486;52.502;13.486;2023-02-15T09:05:23;44.97;;;16.75;;
55609;SDS011;41486;52.502;13.486;2023-02-15T09:07:51;37.22;;;14.90;;
55609;SDS011;41486;52.502;13.486;2023-02-15T09:10:22;35.78;;;17.00;;
55609;SDS011;41486;52.502;13.486;2023-02-15T09:12:50;36.97;;;14.40;;
55609;SDS011;41486;52.502;13.486;2023-02-15T09:15:18;43.17;;;15.75;;
55609;SDS011;41486;52.502;13.486;2023-02-15T09:17:46;38.05;;;15.95;;
55609;SDS011;41486;52.502;13.486;2023-02-15T09:20:14;36.97;;;16.30;;
55609;SDS011;41486;52.502;13.486;2023-02-15T09:22:42;42.03;;;17.80;;
55609;SDS011;41486;52.502;13.486;2023-02-15T09:25:10;36.90;;;15.52;;
55609;SDS011;41486;52.502;13.486;2023-02-15T09:27:41;35.55;;;17.92;;
55609;SDS011;41486;52.502;13.486;2023-02-15T09:30:10;33.05;;;14.18;;
55609;SDS011;41486;52.502;13.486;2023-02-15T09:32:39;37.75;;;14.38;;
55609;SDS011;41486;52.502;13.486;2023-02-15T09:35:07;31.23;;;15.30;;
55609;SDS011;41486;52.502;13.486;2023-02-15T09:37:35;40.35;;;17.25;;
55609;SDS011;41486;52.502;13.486;2023-02-15T09:40:06;33.80;;;15.50;;
55609;SDS011;41486;52.502;13.486;2023-02-15T09:42:39;35.83;;;16.33;;
55609;SDS011;41486;52.502;13.486;2023-02-15T09:45:25;31.90;;;14.48;;
55609;SDS011;41486;52.502;13.486;2023-02-15T09:51:09;30.50;;;13.75;;
55609;SDS011;41486;52.502;13.486;2023-02-15T09:54:09;36.47;;;17.63;;
55609;SDS011;41486;52.502;13.486;2023-02-15T09:56:48;28.98;;;16.00;;
55609;SDS011;41486;52.502;13.486;2023-02-15T09:59:21;29.83;;;13.82;;
55609;SDS011;41486;52.502;13.486;2023-02-15T10:02:06;36.17;;;13.18;;
55609;SDS011;41486;52.502;13.486;2023-02-15T10:04:50;34.30;;;13.98;;
55609;SDS011;41486;52.502;13.486;2023-02-15T10:07:32;30.90;;;13.88;;
55609;SDS011;41486;52.502;13.486;2023-02-15T10:10:14;31.67;;;13.93;;
55609;SDS011;41486;52.502;13.486;2023-02-15T10:12:55;37.25;;;15.45;;
55609;SDS011;41486;52.502;13.486;2023-02-15T10:15:38;34.47;;;13.80;;
55609;SDS011;41486;52.502;13.486;2023-02-15T10:21:17;42.60;;;19.75;;
55609;SDS011;41486;52.502;13.486;2023-02-15T10:23:57;153.25;;;69.47;;
55609;SDS011;41486;52.502;13.486;2023-02-15T10:26:41;29.50;;;16.23;;
55609;SDS011;41486;52.502;13.486;2023-02-15T10:29:14;43.47;;;21.70;;
55609;SDS011;41486;52.502;13.486;2023-02-15T10:31:58;44.65;;;25.65;;
55609;SDS011;41486;52.502;13.486;2023-02-15T10:34:35;49.17;;;28.35;;
55609;SDS011;41486;52.502;13.486;2023-02-15T10:40:24;36.42;;;17.23;;
55609;SDS011;41486;52.502;13.486;2023-02-15T10:43:08;25.77;;;14.85;;
55609;SDS011;41486;52.502;13.486;2023-02-15T10:45:58;32.75;;;15.68;;
55609;SDS011;41486;52.502;13.486;2023-02-15T10:48:43;26.80;;;13.35;;
55609;SDS011;41486;52.502;13.486;2023-02-15T10:51:24;22.02;;;11.75;;
55609;SDS011;41486;52.502;13.486;2023-02-15T10:54:03;23.40;;;12.15;;
55609;SDS011;41486;52.502;13.486;2023-02-15T10:56:43;28.00;;;13.90;;
55609;SDS011;41486;52.502;13.486;2023-02-15T10:59:25;27.58;;;14.68;;
55609;SDS011;41486;52.502;13.486;2023-02-15T11:02:11;25.75;;;11.80;;
55609;SDS011;41486;52.502;13.486;2023-02-15T11:04:52;26.15;;;12.38;;
55609;SDS011;41486;52.502;13.486;2023-02-15T11:07:26;22.27;;;10.95;;
55609;SDS011;41486;52.502;13.486;2023-02-15T11:10:01;24.08;;;11.07;;
55609;SDS011;41486;52.502;13.486;2023-02-15T11:12:43;29.15;;;10.95;;
55609;SDS011;41486;52.502;13.486;2023-02-15T11:15:15;21.05;;;11.38;;
55609;SDS011;41486;52.502;13.486;2023-02-15T11:17:58;18.70;;;10.15;;
55609;SDS011;41486;52.502;13.486;2023-02-15T11:20:33;26.15;;;11.80;;
55609;SDS011;41486;52.502;13.486;2023-02-15T11:23:07;27.90;;;14.07;;
55609;SDS011;41486;52.502;13.486;2023-02-15T11:25:43;24.40;;;11.18;;
55609;SDS011;41486;52.502;13.486;2023-02-15T11:28:16;22.33;;;10.35;;
55609;SDS011;41486;52.502;13.486;2023-02-15T11:30:48;21.17;;;10.65;;
55609;SDS011;41486;52.502;13.486;2023-02-15T11:33:20;26.65;;;11.88;;
55609;SDS011;41486;52.502;13.486;2023-02-15T11:35:55;17.98;;;10.73;;
55609;SDS011;41486;52.502;13.486;2023-02-15T11:40:57;20.90;;;11.10;;
55609;SDS011;41486;52.502;13.486;2023-02-15T11:43:32;23.60;;;11.68;;
55609;SDS011;41486;52.502;13.486;2023-02-15T11:46:04;20.90;;;10.18;;
55609;SDS011;41486;52.502;13.486;2023-02-15T11:48:33;20.98;;;10.18;;
55609;SDS011;41486;52.502;13.486;2023-02-15T11:51:04;17.67;;;8.55;;
55609;SDS011;41486;52.502;13.486;2023-02-15T11:53:39;19.75;;;9.52;;
55609;SDS011;41486;52.502;13.486;2023-02-15T11:56:12;18.13;;;9.05;;
55609;SDS011;41486;52.502;13.486;2023-02-15T12:01:14;20.05;;;8.52;;
55609;SDS011;41486;52.502;13.486;2023-02-15T12:04:12;17.08;;;9.18;;
55609;SDS011;41486;52.502;13.486;2023-02-15T12:07:14;22.23;;;12.73;;
55609;SDS011;41486;52.502;13.486;2023-02-15T12:09:58;18.08;;;10.52;;
55609;SDS011;41486;52.502;13.486;2023-02-15T12:12:34;19.80;;;11.23;;
55609;SDS011;41486;52.502;13.486;2023-02-15T12:15:03;31.17;;;17.10;;
55609;SDS011;41486;52.502;13.486;2023-02-15T12:17:34;19.60;;;10.48;;
55609;SDS011;41486;52.502;13.486;2023-02-15T12:20:18;22.92;;;12.95;;
55609;SDS011;41486;52.502;13.486;2023-02-15T12:25:22;17.17;;;8.68;;
55609;SDS011;41486;52.502;13.486;2023-02-15T12:27:56;17.40;;;8.88;;
55609;SDS011;41486;52.502;13.486;2023-02-15T12:30:28;17.42;;;8.80;;
55609;SDS011;41486;52.502;13.486;2023-02-15T12:35:33;15.90;;;8.65;;
55609;SDS011;41486;52.502;13.486;2023-02-15T12:38:32;15.98;;;8.50;;
55609;SDS011;41486;52.502;13.486;2023-02-15T12:41:03;15.50;;;8.88;;
55609;SDS011;41486;52.502;13.486;2023-02-15T12:43:36;14.63;;;8.52;;
55609;SDS011;41486;52.502;13.486;2023-02-15T12:46:19;13.52;;;8.25;;
55609;SDS011;41486;52.502;13.486;2023-02-15T12:54:17;15.98;;;9.00;;
55609;SDS011;41486;52.502;13.486;2023-02-15T12:59:49;13.25;;;8.18;;
55609;SDS011;41486;52.502;13.486;2023-02-15T13:02:21;15.40;;;9.27;;
55609;SDS011;41486;52.502;13.486;2023-02-15T13:04:51;14.40;;;8.57;;
55609;SDS011;41486;52.502;13.486;2023-02-15T13:07:21;14.32;;;8.20;;
55609;SDS011;41486;52.502;13.486;2023-02-15T13:09:51;12.73;;;8.32;;
55609;SDS011;41486;52.502;13.486;2023-02-15T13:12:21;18.55;;;9.98;;
55609;SDS011;41486;52.502;13.486;2023-02-15T13:14:56;17.02;;;8.73;;
55609;SDS011;41486;52.502;13.486;2023-02-15T13:17:26;12.68;;;7.90;;
55609;SDS011;41486;52.502;13.486;2023-02-15T13:19:58;22.17;;;14.10;;
55609;SDS011;41486;52.502;13.486;2023-02-15T13:22:38;18.17;;;8.63;;
55609;SDS011;41486;52.502;13.486;2023-02-15T13:25:13;14.43;;;9.60;;
55609;SDS011;41486;52.502;13.486;2023-02-15T13:27:48;13.75;;;8.73;;
55609;SDS011;41486;52.502;13.486;2023-02-15T13:30:23;14.20;;;8.75;;
55609;SDS011;41486;52.502;13.486;2023-02-15T13:32:54;15.73;;;9.32;;
55609;SDS011;41486;52.502;13.486;2023-02-15T13:35:25;16.00;;;8.63;;
55609;SDS011;41486;52.502;13.486;2023-02-15T13:38:16;14.68;;;8.93;;
55609;SDS011;41486;52.502;13.486;2023-02-15T13:40:59;15.60;;;8.25;;
55609;SDS011;41486;52.502;13.486;2023-02-15T13:43:35;16.83;;;8.82;;
55609;SDS011;41486;52.502;13.486;2023-02-15T13:46:17;12.98;;;8.10;;
55609;SDS011;41486;52.502;13.486;2023-02-15T13:48:54;16.17;;;8.60;;
55609;SDS011;41486;52.502;13.486;2023-02-15T13:51:32;13.75;;;7.90;;
55609;SDS011;41486;52.502;13.486;2023-02-15T13:57:21;17.10;;;7.70;;
55609;SDS011;41486;52.502;13.486;2023-02-15T14:00:08;14.18;;;7.90;;
55609;SDS011;41486;52.502;13.486;2023-02-15T14:02:54;14.38;;;8.88;;
55609;SDS011;41486;52.502;13.486;2023-02-15T14:05:35;16.40;;;9.93;;
55609;SDS011;41486;52.502;13.486;2023-02-15T14:08:18;10.55;;;7.53;;
55609;SDS011;41486;52.502;13.486;2023-02-15T14:10:56;14.13;;;9.32;;
55609;SDS011;41486;52.502;13.486;2023-02-15T14:16:36;22.90;;;8.43;;
55609;SDS011;41486;52.502;13.486;2023-02-15T14:19:33;15.05;;;8.02;;
55609;SDS011;41486;52.502;13.486;2023-02-15T14:22:07;13.50;;;8.65;;
55609;SDS011;41486;52.502;13.486;2023-02-15T14:24:43;14.57;;;8.10;;
55609;SDS011;41486;52.502;13.486;2023-02-15T14:27:21;12.48;;;7.72;;
55609;SDS011;41486;52.502;13.486;2023-02-15T14:29:57;14.10;;;7.63;;
55609;SDS011;41486;52.502;13.486;2023-02-15T14:32:29;13.70;;;7.43;;
55609;SDS011;41486;52.502;13.486;2023-02-15T14:35:02;17.92;;;8.65;;
55609;SDS011;41486;52.502;13.486;2023-02-15T14:37:35;15.60;;;8.63;;
55609;SDS011;41486;52.502;13.486;2023-02-15T14:40:10;15.18;;;8.38;;
55609;SDS011;41486;52.502;13.486;2023-02-15T14:43:06;17.10;;;8.60;;
55609;SDS011;41486;52.502;13.486;2023-02-15T14:45:45;12.32;;;7.47;;
55609;SDS011;41486;52.502;13.486;2023-02-15T14:48:18;11.32;;;7.32;;
55609;SDS011;41486;52.502;13.486;2023-02-15T14:50:50;15.60;;;9.85;;
55609;SDS011;41486;52.502;13.486;2023-02-15T14:53:32;14.63;;;8.13;;
55609;SDS011;41486;52.502;13.486;2023-02-15T14:56:14;12.82;;;7.22;;
55609;SDS011;41486;52.502;13.486;2023-02-15T14:58:55;16.85;;;9.20;;
55609;SDS011;41486;52.502;13.486;2023-02-15T15:01:26;15.32;;;8.57;;
55609;SDS011;41486;52.502;13.486;2023-02-15T15:03:58;15.52;;;8.13;;
55609;SDS011;41486;52.502;13.486;2023-02-15T15:06:29;12.98;;;6.88;;
55609;SDS011;41486;52.502;13.486;2023-02-15T15:09:00;15.43;;;7.88;;
55609;SDS011;41486;52.502;13.486;2023-02-15T15:11:42;15.57;;;8.43;;
55609;SDS011;41486;52.502;13.486;2023-02-15T15:17:06;15.25;;;8.05;;
55609;SDS011;41486;52.502;13.486;2023-02-15T15:19:56;22.50;;;8.38;;
55609;SDS011;41486;52.502;13.486;2023-02-15T15:22:26;14.30;;;8.05;;
55609;SDS011;41486;52.502;13.486;2023-02-15T15:24:56;11.75;;;7.55;;
55609;SDS011;41486;52.502;13.486;2023-02-15T15:27:37;14.48;;;7.25;;
55609;SDS011;41486;52.502;13.486;2023-02-15T15:33:39;13.27;;;7.32;;